»·PEaware :: AAL491 KLAX-KSMF

AAL491 :: KLAX-KSMF

FLIGHT INFORMATION

Flight Status: Arrived
Operator:
American Airlines
More flights by this operator :: More flights under this callsign
Pilot: Jim M. (18055)
Aircraft: BOEING 757-200
(B752)
More flights by this aircraft type
Origin: KLAX Los Angeles Intl
United States
Destination: KSMF Sacramento Intl
United States
More flights between these airports :: More routes between these airports
Route: LADYJ4 CSTRO NURAY SUUTR2
File this flight plan on PilotEdge
Remarks:
Altitude:
(Current/Filed)
36,000ft
Speed:
(Current/Filed)
450kts
Departed: 16-Sep-19 10:36 AM
Arrived: 16-Sep-19 11:33 AM
Distance/Time
Traveled:
324nm/0:57
Distance/Time
To Go:
Arrived

Flight Plot

Page will automatically refresh every two minutes.

Flight plan parsing failed; only flown route is shown


Map Options




Map Legend


Flown Route
Filed Route
Departure Airport
Arrival Airport
Navaid (VOR, NDB)
Fix

Horizontal Profiles

Position Reports

Time Latitude Longitude Heading Altitude Ground
Speed
16-Sep-19 09:43 33.941111 -118.406212 263 132ft 0kts
16-Sep-19 09:44 33.941111 -118.406212 263 132ft 0kts
16-Sep-19 09:45 33.941111 -118.406212 263 132ft 0kts
16-Sep-19 09:46 33.941111 -118.406212 263 132ft 0kts
16-Sep-19 09:47 33.941111 -118.406212 263 132ft 0kts
16-Sep-19 09:48 33.941111 -118.406212 263 132ft 0kts
16-Sep-19 09:49 33.941111 -118.406212 263 132ft 0kts
16-Sep-19 09:50 33.941111 -118.406212 263 132ft 0kts
16-Sep-19 09:51 33.941111 -118.406212 263 132ft 0kts
16-Sep-19 09:52 33.941111 -118.406212 263 132ft 0kts
16-Sep-19 09:53 33.941111 -118.406212 263 132ft 0kts
16-Sep-19 09:54 33.941111 -118.406212 263 132ft 0kts
16-Sep-19 09:55 33.941111 -118.406212 263 132ft 0kts
16-Sep-19 09:56 33.941111 -118.406212 263 132ft 0kts
16-Sep-19 10:04 33.941111 -118.406212 263 132ft 0kts
16-Sep-19 10:05 33.941111 -118.406212 263 132ft 0kts
16-Sep-19 10:06 33.941111 -118.406212 263 132ft 0kts
16-Sep-19 10:07 33.941111 -118.406212 263 132ft 0kts
16-Sep-19 10:08 33.941111 -118.406212 263 132ft 0kts
16-Sep-19 10:09 33.941111 -118.406212 263 132ft 0kts
16-Sep-19 10:10 33.941111 -118.406212 263 132ft 0kts
16-Sep-19 10:11 33.941111 -118.406212 263 132ft 0kts
16-Sep-19 10:12 33.941111 -118.406212 263 132ft 0kts
16-Sep-19 10:13 33.941111 -118.406212 263 132ft 0kts
16-Sep-19 10:14 33.941111 -118.406212 263 132ft 0kts
16-Sep-19 10:15 33.941111 -118.406212 263 132ft 0kts
16-Sep-19 10:16 33.941111 -118.406212 263 132ft 0kts
16-Sep-19 10:17 33.941111 -118.406212 263 132ft 0kts
16-Sep-19 10:18 33.941111 -118.406212 263 132ft 0kts
16-Sep-19 10:19 33.941463 -118.405731 191 131ft 2kts
16-Sep-19 10:20 33.941735 -118.405742 172 131ft 0kts
16-Sep-19 10:21 33.941735 -118.405742 172 131ft 0kts
16-Sep-19 10:22 33.941735 -118.405742 172 131ft 0kts
16-Sep-19 10:23 33.941735 -118.405742 172 131ft 0kts
16-Sep-19 10:24 33.941258 -118.405668 172 131ft 4kts
16-Sep-19 10:25 33.940321 -118.405528 173 132ft 0kts
16-Sep-19 10:26 33.939922 -118.405474 174 132ft 7kts
16-Sep-19 10:27 33.938330 -118.404749 92 132ft 7kts
16-Sep-19 10:28 33.938636 -118.401363 82 126ft 12kts
16-Sep-19 10:29 33.939094 -118.396918 82 119ft 14kts
16-Sep-19 10:30 33.939620 -118.391807 82 113ft 16kts
16-Sep-19 10:31 33.940182 -118.386241 84 109ft 15kts
16-Sep-19 10:33 33.940614 -118.382011 83 107ft 9kts
16-Sep-19 10:34 33.940714 -118.380884 91 107ft 2kts
16-Sep-19 10:35 33.939821 -118.380296 257 106ft 5kts
16-Sep-19 10:36 33.936267 -118.412755 262 420ft 157kts
16-Sep-19 10:37 33.930812 -118.471419 266 1497ft 211kts
16-Sep-19 10:38 33.924376 -118.549500 266 4221ft 248kts
16-Sep-19 10:39 33.928884 -118.630469 311 7678ft 257kts
16-Sep-19 10:40 33.989482 -118.673529 340 8024ft 270kts
16-Sep-19 10:41 34.065606 -118.672498 358 8723ft 283kts
16-Sep-19 10:42 34.143288 -118.656276 8 10484ft 347kts
16-Sep-19 10:43 34.234583 -118.635550 1 12684ft 389kts
16-Sep-19 10:44 34.333004 -118.652777 345 15697ft 397kts
16-Sep-19 10:45 34.444417 -118.677622 346 18767ft 413kts
16-Sep-19 10:46 34.558111 -118.699706 346 21437ft 426kts
16-Sep-19 10:47 34.681015 -118.723747 346 23960ft 440kts
16-Sep-19 10:48 34.781614 -118.774368 326 25945ft 439kts
16-Sep-19 10:49 34.893032 -118.850396 326 27991ft 449kts
16-Sep-19 10:50 35.003768 -118.926626 325 29686ft 460kts
16-Sep-19 10:51 35.116268 -119.004383 324 31440ft 464kts
16-Sep-19 10:52 35.227506 -119.081510 324 33521ft 454kts
16-Sep-19 10:52 35.319683 -119.145635 324 34887ft 450kts
16-Sep-19 10:54 35.446223 -119.232499 330 36038ft 453kts
16-Sep-19 10:55 35.566866 -119.282696 335 36032ft 455kts
16-Sep-19 10:55 35.666884 -119.322981 335 36031ft 455kts
16-Sep-19 10:56 35.788230 -119.371894 335 36034ft 455kts
16-Sep-19 10:58 35.928242 -119.428510 335 36020ft 455kts
16-Sep-19 10:59 36.047917 -119.477221 335 36011ft 455kts
16-Sep-19 10:59 36.147053 -119.517487 335 36010ft 454kts
16-Sep-19 11:00 36.265265 -119.565665 335 36011ft 456kts
16-Sep-19 11:01 36.385673 -119.614955 335 36012ft 455kts
16-Sep-19 11:02 36.499319 -119.661635 335 36023ft 455kts
16-Sep-19 11:03 36.612707 -119.715680 322 36026ft 444kts
16-Sep-19 11:04 36.715797 -119.795448 322 36017ft 443kts
16-Sep-19 11:05 36.814858 -119.873050 321 35371ft 413kts
16-Sep-19 11:06 36.913082 -119.950467 321 33898ft 422kts
16-Sep-19 11:07 37.010889 -120.027715 320 31805ft 428kts
16-Sep-19 11:08 37.108979 -120.105493 319 29260ft 445kts
16-Sep-19 11:09 37.208812 -120.184888 319 28994ft 452kts
16-Sep-19 11:10 37.314892 -120.269440 319 27576ft 449kts
16-Sep-19 11:11 37.419674 -120.353232 319 26210ft 419kts
16-Sep-19 11:12 37.511874 -120.434531 312 22047ft 397kts
16-Sep-19 11:13 37.594621 -120.518843 314 20616ft 389kts
16-Sep-19 11:14 37.678901 -120.603400 315 18929ft 388kts
16-Sep-19 11:15 37.761289 -120.686252 314 17456ft 380kts
16-Sep-19 11:16 37.841934 -120.767774 315 16035ft 373kts
16-Sep-19 11:17 37.921187 -120.848079 315 15014ft 365kts
16-Sep-19 11:18 37.997096 -120.925282 315 13937ft 358kts
16-Sep-19 11:19 38.071537 -121.001525 312 12726ft 346kts
16-Sep-19 11:20 38.131780 -121.088529 305 12014ft 328kts
16-Sep-19 11:21 38.189894 -121.174409 305 11165ft 322kts
16-Sep-19 11:22 38.244819 -121.249149 309 9665ft 278kts
16-Sep-19 11:23 38.297944 -121.316587 310 8197ft 280kts
16-Sep-19 11:24 38.353570 -121.386987 310 6672ft 280kts
16-Sep-19 11:25 38.407290 -121.455120 311 4756ft 248kts
16-Sep-19 11:26 38.453627 -121.514055 311 3564ft 220kts
16-Sep-19 11:27 38.494317 -121.565941 311 3530ft 197kts
16-Sep-19 11:28 38.542240 -121.582313 357 2442ft 185kts
16-Sep-19 11:29 38.588801 -121.581858 355 1516ft 153kts
16-Sep-19 11:30 38.630200 -121.581167 357 1315ft 143kts
16-Sep-19 11:31 38.671146 -121.580650 356 347ft 147kts
16-Sep-19 11:32 38.695411 -121.580252 1 28ft 2kts
16-Sep-19 11:33 38.696762 -121.582382 250 29ft 6kts
16-Sep-19 11:34 38.694499 -121.582906 194 30ft 9kts
16-Sep-19 11:35 38.693930 -121.585057 277 31ft 4kts
16-Sep-19 11:36 38.693623 -121.586331 217 31ft 6kts

Navigation Log

Ident Type
Flight plan parsing failed, navigation log unavailable